sensor_id;sensor_type;location;lat;lon;timestamp;P1;durP1;ratioP1;P2;durP2;ratioP2
41861;SDS011;27537;57.134;-2.136;2022-12-13T00:01:20;8.35;;;2.70;;
41861;SDS011;27537;57.134;-2.136;2022-12-13T00:03:47;7.43;;;2.40;;
41861;SDS011;27537;57.134;-2.136;2022-12-13T00:06:14;9.27;;;4.15;;
41861;SDS011;27537;57.134;-2.136;2022-12-13T00:08:41;6.40;;;2.60;;
41861;SDS011;27537;57.134;-2.136;2022-12-13T00:11:09;6.07;;;2.20;;
41861;SDS011;27537;57.134;-2.136;2022-12-13T00:13:38;6.50;;;2.10;;
41861;SDS011;27537;57.134;-2.136;2022-12-13T00:16:08;9.40;;;2.72;;
41861;SDS011;27537;57.134;-2.136;2022-12-13T00:18:37;6.80;;;2.28;;
41861;SDS011;27537;57.134;-2.136;2022-12-13T00:21:07;8.98;;;2.50;;
41861;SDS011;27537;57.134;-2.136;2022-12-13T00:23:38;7.88;;;2.53;;
41861;SDS011;27537;57.134;-2.136;2022-12-13T00:26:10;9.45;;;1.98;;
41861;SDS011;27537;57.134;-2.136;2022-12-13T00:28:39;5.10;;;2.08;;
41861;SDS011;27537;57.134;-2.136;2022-12-13T00:31:06;5.72;;;2.28;;
41861;SDS011;27537;57.134;-2.136;2022-12-13T00:33:54;6.80;;;2.42;;
41861;SDS011;27537;57.134;-2.136;2022-12-13T00:36:21;5.55;;;1.98;;
41861;SDS011;27537;57.134;-2.136;2022-12-13T00:38:47;7.95;;;2.13;;
41861;SDS011;27537;57.134;-2.136;2022-12-13T00:41:29;4.60;;;1.80;;
41861;SDS011;27537;57.134;-2.136;2022-12-13T00:43:58;5.30;;;2.00;;
41861;SDS011;27537;57.134;-2.136;2022-12-13T00:46:25;5.05;;;2.15;;
41861;SDS011;27537;57.134;-2.136;2022-12-13T00:48:53;7.43;;;2.55;;
41861;SDS011;27537;57.134;-2.136;2022-12-13T00:51:22;6.25;;;2.15;;
41861;SDS011;27537;57.134;-2.136;2022-12-13T00:53:50;5.65;;;2.30;;
41861;SDS011;27537;57.134;-2.136;2022-12-13T00:56:18;6.30;;;1.98;;
41861;SDS011;27537;57.134;-2.136;2022-12-13T00:58:47;5.57;;;1.92;;
41861;SDS011;27537;57.134;-2.136;2022-12-13T01:01:19;5.20;;;1.90;;
41861;SDS011;27537;57.134;-2.136;2022-12-13T01:03:50;6.13;;;1.98;;
41861;SDS011;27537;57.134;-2.136;2022-12-13T01:06:32;6.30;;;2.33;;
41861;SDS011;27537;57.134;-2.136;2022-12-13T01:09:16;12.18;;;2.60;;
41861;SDS011;27537;57.134;-2.136;2022-12-13T01:11:45;4.35;;;1.80;;
41861;SDS011;27537;57.134;-2.136;2022-12-13T01:14:14;6.03;;;1.98;;
41861;SDS011;27537;57.134;-2.136;2022-12-13T01:16:41;10.82;;;2.72;;
41861;SDS011;27537;57.134;-2.136;2022-12-13T01:19:08;9.57;;;2.53;;
41861;SDS011;27537;57.134;-2.136;2022-12-13T01:21:35;7.43;;;2.45;;
41861;SDS011;27537;57.134;-2.136;2022-12-13T01:24:02;6.63;;;2.53;;
41861;SDS011;27537;57.134;-2.136;2022-12-13T01:26:31;6.18;;;2.35;;
41861;SDS011;27537;57.134;-2.136;2022-12-13T01:28:58;9.88;;;3.00;;
41861;SDS011;27537;57.134;-2.136;2022-12-13T01:31:25;4.47;;;2.15;;
41861;SDS011;27537;57.134;-2.136;2022-12-13T01:33:52;7.10;;;2.33;;
41861;SDS011;27537;57.134;-2.136;2022-12-13T01:36:20;5.72;;;2.25;;
41861;SDS011;27537;57.134;-2.136;2022-12-13T01:38:54;6.63;;;2.30;;
41861;SDS011;27537;57.134;-2.136;2022-12-13T01:41:24;6.20;;;2.13;;
41861;SDS011;27537;57.134;-2.136;2022-12-13T01:43:54;7.22;;;2.53;;
41861;SDS011;27537;57.134;-2.136;2022-12-13T01:46:26;7.97;;;2.72;;
41861;SDS011;27537;57.134;-2.136;2022-12-13T01:49:01;5.43;;;2.30;;
41861;SDS011;27537;57.134;-2.136;2022-12-13T01:51:50;5.22;;;2.10;;
41861;SDS011;27537;57.134;-2.136;2022-12-13T01:54:21;8.52;;;2.20;;
41861;SDS011;27537;57.134;-2.136;2022-12-13T01:56:59;11.35;;;2.20;;
41861;SDS011;27537;57.134;-2.136;2022-12-13T01:59:31;6.00;;;2.00;;
41861;SDS011;27537;57.134;-2.136;2022-12-13T02:01:59;4.70;;;1.92;;
41861;SDS011;27537;57.134;-2.136;2022-12-13T02:04:37;9.38;;;2.08;;
41861;SDS011;27537;57.134;-2.136;2022-12-13T02:07:12;5.90;;;1.92;;
41861;SDS011;27537;57.134;-2.136;2022-12-13T02:09:49;4.90;;;2.08;;
41861;SDS011;27537;57.134;-2.136;2022-12-13T02:12:22;7.10;;;1.88;;
41861;SDS011;27537;57.134;-2.136;2022-12-13T02:14:56;5.85;;;2.10;;
41861;SDS011;27537;57.134;-2.136;2022-12-13T02:22:53;5.57;;;1.73;;
41861;SDS011;27537;57.134;-2.136;2022-12-13T02:31:15;6.00;;;2.03;;
41861;SDS011;27537;57.134;-2.136;2022-12-13T02:33:52;4.57;;;1.70;;
41861;SDS011;27537;57.134;-2.136;2022-12-13T02:39:21;7.30;;;2.00;;
41861;SDS011;27537;57.134;-2.136;2022-12-13T02:42:18;6.03;;;1.90;;
41861;SDS011;27537;57.134;-2.136;2022-12-13T02:45:13;4.85;;;1.83;;
41861;SDS011;27537;57.134;-2.136;2022-12-13T02:47:46;6.55;;;2.03;;
41861;SDS011;27537;57.134;-2.136;2022-12-13T02:50:15;3.65;;;1.65;;
41861;SDS011;27537;57.134;-2.136;2022-12-13T02:52:42;4.45;;;1.70;;
41861;SDS011;27537;57.134;-2.136;2022-12-13T02:55:12;5.68;;;2.30;;
41861;SDS011;27537;57.134;-2.136;2022-12-13T02:57:45;5.60;;;1.73;;
41861;SDS011;27537;57.134;-2.136;2022-12-13T03:00:14;7.00;;;2.33;;
41861;SDS011;27537;57.134;-2.136;2022-12-13T03:15:11;4.50;;;2.17;;
41861;SDS011;27537;57.134;-2.136;2022-12-13T03:17:46;3.03;;;1.58;;
41861;SDS011;27537;57.134;-2.136;2022-12-13T03:20:18;5.93;;;1.52;;
41861;SDS011;27537;57.134;-2.136;2022-12-13T03:22:50;6.63;;;2.13;;
41861;SDS011;27537;57.134;-2.136;2022-12-13T03:25:20;5.45;;;2.13;;
41861;SDS011;27537;57.134;-2.136;2022-12-13T03:27:58;7.15;;;2.20;;
41861;SDS011;27537;57.134;-2.136;2022-12-13T03:30:28;5.60;;;2.00;;
41861;SDS011;27537;57.134;-2.136;2022-12-13T03:32:56;7.40;;;2.25;;
41861;SDS011;27537;57.134;-2.136;2022-12-13T03:35:22;4.35;;;1.90;;
41861;SDS011;27537;57.134;-2.136;2022-12-13T03:38:00;5.50;;;2.05;;
41861;SDS011;27537;57.134;-2.136;2022-12-13T03:40:27;5.60;;;2.10;;
41861;SDS011;27537;57.134;-2.136;2022-12-13T03:42:55;4.05;;;1.98;;
41861;SDS011;27537;57.134;-2.136;2022-12-13T03:45:22;5.60;;;2.45;;
41861;SDS011;27537;57.134;-2.136;2022-12-13T03:47:49;4.72;;;1.77;;
41861;SDS011;27537;57.134;-2.136;2022-12-13T03:50:16;3.15;;;1.52;;
41861;SDS011;27537;57.134;-2.136;2022-12-13T03:52:59;3.95;;;1.70;;
41861;SDS011;27537;57.134;-2.136;2022-12-13T03:55:27;4.75;;;2.00;;
41861;SDS011;27537;57.134;-2.136;2022-12-13T03:57:54;4.35;;;1.92;;
41861;SDS011;27537;57.134;-2.136;2022-12-13T04:00:21;5.40;;;1.63;;
41861;SDS011;27537;57.134;-2.136;2022-12-13T04:02:48;4.00;;;1.70;;
41861;SDS011;27537;57.134;-2.136;2022-12-13T04:05:15;4.30;;;1.85;;
41861;SDS011;27537;57.134;-2.136;2022-12-13T04:07:42;4.68;;;1.77;;
41861;SDS011;27537;57.134;-2.136;2022-12-13T04:10:14;6.82;;;2.03;;
41861;SDS011;27537;57.134;-2.136;2022-12-13T04:12:52;5.93;;;2.00;;
41861;SDS011;27537;57.134;-2.136;2022-12-13T04:15:38;3.15;;;1.70;;
41861;SDS011;27537;57.134;-2.136;2022-12-13T04:18:05;6.15;;;1.92;;
41861;SDS011;27537;57.134;-2.136;2022-12-13T04:20:32;2.78;;;1.48;;
41861;SDS011;27537;57.134;-2.136;2022-12-13T04:22:58;6.30;;;1.70;;
41861;SDS011;27537;57.134;-2.136;2022-12-13T04:25:35;5.35;;;1.65;;
41861;SDS011;27537;57.134;-2.136;2022-12-13T04:28:03;4.20;;;1.80;;
41861;SDS011;27537;57.134;-2.136;2022-12-13T04:30:29;4.75;;;1.80;;
41861;SDS011;27537;57.134;-2.136;2022-12-13T04:32:56;5.13;;;1.83;;
41861;SDS011;27537;57.134;-2.136;2022-12-13T04:35:23;4.10;;;1.70;;
41861;SDS011;27537;57.134;-2.136;2022-12-13T04:37:50;4.78;;;1.92;;
41861;SDS011;27537;57.134;-2.136;2022-12-13T04:40:17;4.03;;;1.90;;
41861;SDS011;27537;57.134;-2.136;2022-12-13T04:42:47;3.92;;;1.92;;
41861;SDS011;27537;57.134;-2.136;2022-12-13T04:45:19;3.65;;;1.83;;
41861;SDS011;27537;57.134;-2.136;2022-12-13T04:47:47;4.43;;;1.80;;
41861;SDS011;27537;57.134;-2.136;2022-12-13T04:50:14;3.40;;;1.52;;
41861;SDS011;27537;57.134;-2.136;2022-12-13T04:52:41;5.22;;;1.95;;
41861;SDS011;27537;57.134;-2.136;2022-12-13T04:55:07;5.20;;;1.98;;
41861;SDS011;27537;57.134;-2.136;2022-12-13T04:57:34;5.50;;;2.20;;
41861;SDS011;27537;57.134;-2.136;2022-12-13T05:00:02;7.13;;;2.20;;
41861;SDS011;27537;57.134;-2.136;2022-12-13T05:02:30;7.00;;;2.00;;
41861;SDS011;27537;57.134;-2.136;2022-12-13T05:04:56;3.78;;;1.67;;
41861;SDS011;27537;57.134;-2.136;2022-12-13T05:07:24;3.75;;;1.77;;
41861;SDS011;27537;57.134;-2.136;2022-12-13T05:09:51;2.60;;;1.50;;
41861;SDS011;27537;57.134;-2.136;2022-12-13T05:12:18;2.95;;;1.45;;
41861;SDS011;27537;57.134;-2.136;2022-12-13T05:14:49;4.15;;;1.77;;
41861;SDS011;27537;57.134;-2.136;2022-12-13T05:17:16;3.10;;;1.67;;
41861;SDS011;27537;57.134;-2.136;2022-12-13T05:19:43;3.25;;;1.60;;
41861;SDS011;27537;57.134;-2.136;2022-12-13T05:22:10;5.32;;;1.90;;
41861;SDS011;27537;57.134;-2.136;2022-12-13T05:24:46;4.70;;;1.90;;
41861;SDS011;27537;57.134;-2.136;2022-12-13T05:27:13;7.28;;;2.15;;
41861;SDS011;27537;57.134;-2.136;2022-12-13T05:29:54;4.10;;;1.75;;
41861;SDS011;27537;57.134;-2.136;2022-12-13T05:32:34;4.78;;;1.92;;
41861;SDS011;27537;57.134;-2.136;2022-12-13T05:35:18;3.22;;;1.65;;
41861;SDS011;27537;57.134;-2.136;2022-12-13T05:37:48;3.72;;;1.80;;
41861;SDS011;27537;57.134;-2.136;2022-12-13T05:40:20;5.80;;;1.92;;
41861;SDS011;27537;57.134;-2.136;2022-12-13T05:42:49;7.18;;;2.10;;
41861;SDS011;27537;57.134;-2.136;2022-12-13T05:45:16;3.15;;;1.67;;
41861;SDS011;27537;57.134;-2.136;2022-12-13T05:47:44;5.55;;;2.15;;
41861;SDS011;27537;57.134;-2.136;2022-12-13T05:50:12;4.18;;;1.60;;
41861;SDS011;27537;57.134;-2.136;2022-12-13T05:52:41;3.38;;;1.80;;
41861;SDS011;27537;57.134;-2.136;2022-12-13T05:55:08;4.32;;;1.83;;
41861;SDS011;27537;57.134;-2.136;2022-12-13T05:57:36;3.33;;;1.73;;
41861;SDS011;27537;57.134;-2.136;2022-12-13T06:00:04;3.25;;;1.63;;
41861;SDS011;27537;57.134;-2.136;2022-12-13T06:02:53;3.83;;;1.65;;
41861;SDS011;27537;57.134;-2.136;2022-12-13T06:05:20;8.20;;;2.03;;
41861;SDS011;27537;57.134;-2.136;2022-12-13T06:07:46;5.13;;;1.90;;
41861;SDS011;27537;57.134;-2.136;2022-12-13T06:10:21;2.78;;;1.63;;
41861;SDS011;27537;57.134;-2.136;2022-12-13T06:12:48;3.65;;;1.73;;
41861;SDS011;27537;57.134;-2.136;2022-12-13T06:15:15;4.40;;;1.80;;
41861;SDS011;27537;57.134;-2.136;2022-12-13T06:17:48;6.45;;;2.10;;
41861;SDS011;27537;57.134;-2.136;2022-12-13T06:20:14;3.25;;;1.65;;
41861;SDS011;27537;57.134;-2.136;2022-12-13T06:22:50;4.25;;;1.60;;
41861;SDS011;27537;57.134;-2.136;2022-12-13T06:25:17;3.70;;;1.70;;
41861;SDS011;27537;57.134;-2.136;2022-12-13T06:27:57;6.10;;;1.90;;
41861;SDS011;27537;57.134;-2.136;2022-12-13T06:30:26;3.70;;;1.70;;
41861;SDS011;27537;57.134;-2.136;2022-12-13T06:32:54;5.25;;;1.77;;
41861;SDS011;27537;57.134;-2.136;2022-12-13T06:35:20;2.95;;;1.75;;
41861;SDS011;27537;57.134;-2.136;2022-12-13T06:37:55;3.97;;;1.58;;
41861;SDS011;27537;57.134;-2.136;2022-12-13T06:40:30;3.80;;;1.90;;
41861;SDS011;27537;57.134;-2.136;2022-12-13T06:42:59;5.35;;;1.83;;
41861;SDS011;27537;57.134;-2.136;2022-12-13T06:45:26;3.88;;;1.60;;
41861;SDS011;27537;57.134;-2.136;2022-12-13T06:47:53;3.70;;;1.70;;
41861;SDS011;27537;57.134;-2.136;2022-12-13T06:50:21;3.30;;;1.60;;
41861;SDS011;27537;57.134;-2.136;2022-12-13T06:52:48;3.35;;;1.60;;
41861;SDS011;27537;57.134;-2.136;2022-12-13T06:55:15;3.05;;;1.70;;
41861;SDS011;27537;57.134;-2.136;2022-12-13T06:57:49;3.28;;;1.58;;
41861;SDS011;27537;57.134;-2.136;2022-12-13T07:00:16;3.75;;;1.60;;
41861;SDS011;27537;57.134;-2.136;2022-12-13T07:02:52;4.23;;;1.90;;
41861;SDS011;27537;57.134;-2.136;2022-12-13T07:05:20;9.25;;;1.75;;
41861;SDS011;27537;57.134;-2.136;2022-12-13T07:07:47;3.67;;;1.80;;
41861;SDS011;27537;57.134;-2.136;2022-12-13T07:10:14;5.07;;;1.83;;
41861;SDS011;27537;57.134;-2.136;2022-12-13T07:12:47;3.42;;;1.75;;
41861;SDS011;27537;57.134;-2.136;2022-12-13T07:15:15;5.40;;;2.05;;
41861;SDS011;27537;57.134;-2.136;2022-12-13T07:17:41;7.95;;;2.50;;
41861;SDS011;27537;57.134;-2.136;2022-12-13T07:20:11;5.90;;;2.08;;
41861;SDS011;27537;57.134;-2.136;2022-12-13T07:22:40;5.25;;;2.15;;
41861;SDS011;27537;57.134;-2.136;2022-12-13T07:25:13;5.97;;;2.25;;
41861;SDS011;27537;57.134;-2.136;2022-12-13T07:27:57;4.30;;;1.73;;
41861;SDS011;27537;57.134;-2.136;2022-12-13T07:30:27;7.13;;;2.00;;
41861;SDS011;27537;57.134;-2.136;2022-12-13T07:33:06;6.32;;;1.90;;
41861;SDS011;27537;57.134;-2.136;2022-12-13T07:35:34;3.13;;;1.50;;
41861;SDS011;27537;57.134;-2.136;2022-12-13T07:38:03;5.90;;;2.05;;
41861;SDS011;27537;57.134;-2.136;2022-12-13T07:40:32;3.85;;;1.88;;
41861;SDS011;27537;57.134;-2.136;2022-12-13T07:43:00;3.28;;;1.70;;
41861;SDS011;27537;57.134;-2.136;2022-12-13T07:45:27;3.72;;;1.85;;
41861;SDS011;27537;57.134;-2.136;2022-12-13T07:47:54;3.97;;;1.75;;
41861;SDS011;27537;57.134;-2.136;2022-12-13T07:50:21;3.85;;;1.60;;
41861;SDS011;27537;57.134;-2.136;2022-12-13T07:52:50;5.10;;;1.90;;
41861;SDS011;27537;57.134;-2.136;2022-12-13T07:55:17;2.88;;;1.50;;
41861;SDS011;27537;57.134;-2.136;2022-12-13T07:57:48;2.45;;;1.50;;
41861;SDS011;27537;57.134;-2.136;2022-12-13T08:00:15;3.58;;;1.63;;
41861;SDS011;27537;57.134;-2.136;2022-12-13T08:02:42;3.78;;;1.70;;
41861;SDS011;27537;57.134;-2.136;2022-12-13T08:05:22;3.35;;;1.70;;
41861;SDS011;27537;57.134;-2.136;2022-12-13T08:08:04;5.10;;;1.70;;
41861;SDS011;27537;57.134;-2.136;2022-12-13T08:13:14;3.03;;;1.60;;
41861;SDS011;27537;57.134;-2.136;2022-12-13T08:15:41;2.83;;;1.65;;
41861;SDS011;27537;57.134;-2.136;2022-12-13T08:18:22;3.50;;;1.60;;
41861;SDS011;27537;57.134;-2.136;2022-12-13T08:21:03;3.60;;;1.58;;
41861;SDS011;27537;57.134;-2.136;2022-12-13T08:23:44;3.88;;;1.90;;
41861;SDS011;27537;57.134;-2.136;2022-12-13T08:26:25;3.72;;;1.70;;
41861;SDS011;27537;57.134;-2.136;2022-12-13T08:29:06;7.90;;;1.90;;
41861;SDS011;27537;57.134;-2.136;2022-12-13T08:31:47;4.75;;;1.60;;
41861;SDS011;27537;57.134;-2.136;2022-12-13T08:34:30;3.50;;;1.70;;
41861;SDS011;27537;57.134;-2.136;2022-12-13T08:36:57;3.58;;;1.45;;
41861;SDS011;27537;57.134;-2.136;2022-12-13T08:39:39;6.05;;;1.65;;
41861;SDS011;27537;57.134;-2.136;2022-12-13T08:42:23;4.10;;;1.67;;
41861;SDS011;27537;57.134;-2.136;2022-12-13T08:45:04;5.13;;;2.20;;
41861;SDS011;27537;57.134;-2.136;2022-12-13T08:47:45;3.85;;;1.77;;
41861;SDS011;27537;57.134;-2.136;2022-12-13T08:50:26;3.85;;;1.50;;
41861;SDS011;27537;57.134;-2.136;2022-12-13T08:53:08;17.53;;;12.87;;
41861;SDS011;27537;57.134;-2.136;2022-12-13T08:55:58;5.82;;;3.08;;
41861;SDS011;27537;57.134;-2.136;2022-12-13T08:58:41;6.57;;;3.13;;
41861;SDS011;27537;57.134;-2.136;2022-12-13T09:01:09;5.10;;;2.05;;
41861;SDS011;27537;57.134;-2.136;2022-12-13T09:03:51;5.53;;;2.00;;
41861;SDS011;27537;57.134;-2.136;2022-12-13T09:06:23;5.45;;;2.00;;
41861;SDS011;27537;57.134;-2.136;2022-12-13T09:09:04;7.55;;;2.03;;
41861;SDS011;27537;57.134;-2.136;2022-12-13T09:11:45;4.18;;;1.80;;
41861;SDS011;27537;57.134;-2.136;2022-12-13T09:14:26;2.92;;;1.70;;
41861;SDS011;27537;57.134;-2.136;2022-12-13T09:16:59;4.72;;;1.80;;
41861;SDS011;27537;57.134;-2.136;2022-12-13T09:19:41;4.43;;;1.80;;
41861;SDS011;27537;57.134;-2.136;2022-12-13T09:22:22;5.55;;;2.00;;
41861;SDS011;27537;57.134;-2.136;2022-12-13T09:25:03;4.28;;;1.73;;
41861;SDS011;27537;57.134;-2.136;2022-12-13T09:27:44;8.10;;;2.03;;
41861;SDS011;27537;57.134;-2.136;2022-12-13T09:30:26;4.40;;;2.03;;
41861;SDS011;27537;57.134;-2.136;2022-12-13T09:33:07;2.97;;;1.48;;
41861;SDS011;27537;57.134;-2.136;2022-12-13T09:35:48;4.60;;;1.80;;
41861;SDS011;27537;57.134;-2.136;2022-12-13T09:38:44;3.67;;;1.50;;
41861;SDS011;27537;57.134;-2.136;2022-12-13T09:41:31;3.95;;;1.88;;
41861;SDS011;27537;57.134;-2.136;2022-12-13T09:44:20;4.53;;;1.90;;
41861;SDS011;27537;57.134;-2.136;2022-12-13T09:47:00;6.03;;;2.10;;
41861;SDS011;27537;57.134;-2.136;2022-12-13T09:49:44;6.18;;;2.53;;
41861;SDS011;27537;57.134;-2.136;2022-12-13T09:52:25;3.80;;;1.65;;
41861;SDS011;27537;57.134;-2.136;2022-12-13T09:55:29;6.00;;;1.98;;
41861;SDS011;27537;57.134;-2.136;2022-12-13T09:58:35;4.55;;;2.00;;
41861;SDS011;27537;57.134;-2.136;2022-12-13T10:01:16;6.10;;;1.88;;
41861;SDS011;27537;57.134;-2.136;2022-12-13T10:03:49;5.47;;;1.48;;
41861;SDS011;27537;57.134;-2.136;2022-12-13T10:09:13;7.03;;;1.92;;
41861;SDS011;27537;57.134;-2.136;2022-12-13T10:11:54;6.57;;;1.98;;
41861;SDS011;27537;57.134;-2.136;2022-12-13T10:14:31;6.80;;;1.98;;
41861;SDS011;27537;57.134;-2.136;2022-12-13T10:17:19;5.60;;;2.00;;
41861;SDS011;27537;57.134;-2.136;2022-12-13T10:20:05;4.85;;;2.40;;
41861;SDS011;27537;57.134;-2.136;2022-12-13T10:22:33;4.63;;;1.80;;
41861;SDS011;27537;57.134;-2.136;2022-12-13T10:25:14;5.70;;;1.92;;
41861;SDS011;27537;57.134;-2.136;2022-12-13T10:27:55;7.00;;;2.33;;
41861;SDS011;27537;57.134;-2.136;2022-12-13T10:30:40;5.35;;;2.13;;
41861;SDS011;27537;57.134;-2.136;2022-12-13T10:33:24;4.05;;;1.90;;
41861;SDS011;27537;57.134;-2.136;2022-12-13T10:42:17;6.15;;;2.38;;
41861;SDS011;27537;57.134;-2.136;2022-12-13T10:45:12;4.85;;;2.15;;
41861;SDS011;27537;57.134;-2.136;2022-12-13T10:47:55;6.25;;;1.98;;
41861;SDS011;27537;57.134;-2.136;2022-12-13T10:50:35;7.20;;;2.05;;
41861;SDS011;27537;57.134;-2.136;2022-12-13T10:53:16;6.70;;;2.50;;
41861;SDS011;27537;57.134;-2.136;2022-12-13T10:58:42;6.22;;;1.92;;
41861;SDS011;27537;57.134;-2.136;2022-12-13T11:01:27;4.15;;;1.83;;
41861;SDS011;27537;57.134;-2.136;2022-12-13T11:04:19;3.45;;;1.70;;
41861;SDS011;27537;57.134;-2.136;2022-12-13T11:07:23;6.18;;;2.00;;
41861;SDS011;27537;57.134;-2.136;2022-12-13T11:10:17;6.53;;;1.85;;
41861;SDS011;27537;57.134;-2.136;2022-12-13T11:13:05;3.67;;;1.55;;
41861;SDS011;27537;57.134;-2.136;2022-12-13T11:15:50;6.05;;;2.20;;
41861;SDS011;27537;57.134;-2.136;2022-12-13T11:18:35;3.20;;;1.50;;
41861;SDS011;27537;57.134;-2.136;2022-12-13T11:21:24;6.63;;;2.13;;
41861;SDS011;27537;57.134;-2.136;2022-12-13T11:24:07;3.95;;;1.63;;
41861;SDS011;27537;57.134;-2.136;2022-12-13T11:26:49;4.75;;;1.70;;
41861;SDS011;27537;57.134;-2.136;2022-12-13T11:38:47;2.90;;;1.50;;
41861;SDS011;27537;57.134;-2.136;2022-12-13T11:42:00;8.32;;;3.80;;
41861;SDS011;27537;57.134;-2.136;2022-12-13T11:50:40;5.88;;;1.98;;
41861;SDS011;27537;57.134;-2.136;2022-12-13T11:53:34;6.72;;;1.90;;
41861;SDS011;27537;57.134;-2.136;2022-12-13T12:04:52;7.88;;;2.83;;
41861;SDS011;27537;57.134;-2.136;2022-12-13T12:07:44;7.00;;;2.75;;
41861;SDS011;27537;57.134;-2.136;2022-12-13T12:10:37;8.85;;;2.80;;
41861;SDS011;27537;57.134;-2.136;2022-12-13T12:13:17;10.43;;;2.35;;
41861;SDS011;27537;57.134;-2.136;2022-12-13T12:18:43;8.48;;;2.70;;
41861;SDS011;27537;57.134;-2.136;2022-12-13T12:50:43;4.70;;;1.95;;
41861;SDS011;27537;57.134;-2.136;2022-12-13T12:56:17;5.47;;;2.30;;
41861;SDS011;27537;57.134;-2.136;2022-12-13T12:58:55;4.93;;;2.22;;
41861;SDS011;27537;57.134;-2.136;2022-12-13T13:04:10;7.05;;;2.05;;
41861;SDS011;27537;57.134;-2.136;2022-12-13T13:06:52;5.57;;;2.08;;
41861;SDS011;27537;57.134;-2.136;2022-12-13T13:09:48;6.03;;;1.90;;
41861;SDS011;27537;57.134;-2.136;2022-12-13T13:12:20;11.73;;;3.15;;
41861;SDS011;27537;57.134;-2.136;2022-12-13T13:14:55;7.90;;;2.10;;
41861;SDS011;27537;57.134;-2.136;2022-12-13T13:19:53;6.88;;;2.50;;
41861;SDS011;27537;57.134;-2.136;2022-12-13T13:22:37;6.57;;;2.05;;
41861;SDS011;27537;57.134;-2.136;2022-12-13T13:28:26;6.35;;;2.10;;
41861;SDS011;27537;57.134;-2.136;2022-12-13T13:31:00;3.65;;;1.92;;
41861;SDS011;27537;57.134;-2.136;2022-12-13T13:39:10;6.55;;;2.00;;
41861;SDS011;27537;57.134;-2.136;2022-12-13T13:53:02;7.75;;;2.80;;
41861;SDS011;27537;57.134;-2.136;2022-12-13T14:01:46;10.13;;;3.63;;
41861;SDS011;27537;57.134;-2.136;2022-12-13T14:10:06;9.15;;;3.17;;
41861;SDS011;27537;57.134;-2.136;2022-12-13T14:22:45;10.98;;;3.83;;
41861;SDS011;27537;57.134;-2.136;2022-12-13T14:25:39;6.35;;;2.53;;
41861;SDS011;27537;57.134;-2.136;2022-12-13T14:28:53;10.23;;;3.78;;
41861;SDS011;27537;57.134;-2.136;2022-12-13T14:31:55;9.05;;;3.03;;
41861;SDS011;27537;57.134;-2.136;2022-12-13T14:34:37;7.20;;;2.75;;
41861;SDS011;27537;57.134;-2.136;2022-12-13T14:37:28;7.30;;;2.25;;
41861;SDS011;27537;57.134;-2.136;2022-12-13T14:40:24;8.07;;;2.58;;
41861;SDS011;27537;57.134;-2.136;2022-12-13T14:43:25;6.43;;;2.20;;
41861;SDS011;27537;57.134;-2.136;2022-12-13T14:46:17;7.43;;;2.53;;
41861;SDS011;27537;57.134;-2.136;2022-12-13T14:49:01;7.15;;;2.42;;
41861;SDS011;27537;57.134;-2.136;2022-12-13T14:51:43;7.53;;;2.50;;
41861;SDS011;27537;57.134;-2.136;2022-12-13T14:57:40;10.07;;;3.28;;
41861;SDS011;27537;57.134;-2.136;2022-12-13T15:00:34;9.70;;;4.15;;
41861;SDS011;27537;57.134;-2.136;2022-12-13T15:03:21;11.93;;;3.90;;
41861;SDS011;27537;57.134;-2.136;2022-12-13T15:06:06;12.10;;;4.30;;
41861;SDS011;27537;57.134;-2.136;2022-12-13T15:08:47;13.23;;;4.00;;
41861;SDS011;27537;57.134;-2.136;2022-12-13T15:11:29;12.88;;;3.85;;
41861;SDS011;27537;57.134;-2.136;2022-12-13T15:14:19;15.77;;;4.00;;
41861;SDS011;27537;57.134;-2.136;2022-12-13T15:17:04;15.32;;;4.07;;
41861;SDS011;27537;57.134;-2.136;2022-12-13T15:19:45;10.15;;;3.65;;
41861;SDS011;27537;57.134;-2.136;2022-12-13T15:22:46;11.57;;;3.22;;
41861;SDS011;27537;57.134;-2.136;2022-12-13T16:57:17;12.25;;;5.00;;
41861;SDS011;27537;57.134;-2.136;2022-12-13T16:59:45;15.48;;;5.13;;
41861;SDS011;27537;57.134;-2.136;2022-12-13T17:02:31;10.55;;;4.10;;
41861;SDS011;27537;57.134;-2.136;2022-12-13T17:05:14;15.75;;;5.20;;
41861;SDS011;27537;57.134;-2.136;2022-12-13T17:08:04;16.20;;;5.70;;
41861;SDS011;27537;57.134;-2.136;2022-12-13T17:10:45;15.40;;;6.82;;
41861;SDS011;27537;57.134;-2.136;2022-12-13T17:13:27;13.98;;;5.90;;
41861;SDS011;27537;57.134;-2.136;2022-12-13T17:16:09;19.17;;;7.35;;
41861;SDS011;27537;57.134;-2.136;2022-12-13T17:21:34;15.40;;;5.80;;
41861;SDS011;27537;57.134;-2.136;2022-12-13T17:24:17;14.27;;;6.20;;
41861;SDS011;27537;57.134;-2.136;2022-12-13T17:27:02;10.30;;;4.70;;
41861;SDS011;27537;57.134;-2.136;2022-12-13T17:29:46;10.30;;;4.17;;
41861;SDS011;27537;57.134;-2.136;2022-12-13T17:32:27;14.32;;;4.10;;
41861;SDS011;27537;57.134;-2.136;2022-12-13T17:35:08;10.63;;;3.30;;
41861;SDS011;27537;57.134;-2.136;2022-12-13T17:37:52;11.15;;;3.60;;
41861;SDS011;27537;57.134;-2.136;2022-12-13T17:43:14;11.70;;;3.70;;
41861;SDS011;27537;57.134;-2.136;2022-12-13T17:45:59;14.00;;;5.28;;
41861;SDS011;27537;57.134;-2.136;2022-12-13T17:48:41;10.57;;;4.38;;
41861;SDS011;27537;57.134;-2.136;2022-12-13T17:51:24;14.65;;;4.93;;
41861;SDS011;27537;57.134;-2.136;2022-12-13T17:54:05;10.23;;;3.70;;
41861;SDS011;27537;57.134;-2.136;2022-12-13T17:56:49;26.40;;;6.32;;
41861;SDS011;27537;57.134;-2.136;2022-12-13T17:59:31;19.38;;;5.10;;
41861;SDS011;27537;57.134;-2.136;2022-12-13T18:02:12;13.55;;;3.55;;
41861;SDS011;27537;57.134;-2.136;2022-12-13T18:04:56;10.70;;;4.22;;
41861;SDS011;27537;57.134;-2.136;2022-12-13T18:07:37;10.40;;;2.75;;
41861;SDS011;27537;57.134;-2.136;2022-12-13T18:10:18;9.10;;;2.58;;
41861;SDS011;27537;57.134;-2.136;2022-12-13T18:13:00;10.13;;;3.65;;
41861;SDS011;27537;57.134;-2.136;2022-12-13T18:15:40;10.18;;;3.03;;
41861;SDS011;27537;57.134;-2.136;2022-12-13T18:18:24;11.35;;;3.53;;
41861;SDS011;27537;57.134;-2.136;2022-12-13T18:21:10;14.10;;;3.72;;
41861;SDS011;27537;57.134;-2.136;2022-12-13T18:23:53;12.05;;;3.33;;
41861;SDS011;27537;57.134;-2.136;2022-12-13T18:26:34;14.85;;;3.72;;
41861;SDS011;27537;57.134;-2.136;2022-12-13T18:29:17;9.25;;;3.30;;
41861;SDS011;27537;57.134;-2.136;2022-12-13T18:32:03;11.55;;;3.55;;
41861;SDS011;27537;57.134;-2.136;2022-12-13T18:34:47;14.35;;;4.43;;
41861;SDS011;27537;57.134;-2.136;2022-12-13T18:37:29;15.95;;;3.83;;
41861;SDS011;27537;57.134;-2.136;2022-12-13T18:40:10;8.93;;;3.75;;
41861;SDS011;27537;57.134;-2.136;2022-12-13T18:42:57;9.10;;;3.58;;
41861;SDS011;27537;57.134;-2.136;2022-12-13T18:46:20;12.93;;;3.20;;
41861;SDS011;27537;57.134;-2.136;2022-12-13T18:49:03;9.55;;;3.47;;
41861;SDS011;27537;57.134;-2.136;2022-12-13T18:51:45;9.02;;;3.50;;
41861;SDS011;27537;57.134;-2.136;2022-12-13T18:54:27;11.93;;;3.17;;
41861;SDS011;27537;57.134;-2.136;2022-12-13T18:57:08;9.57;;;2.80;;
41861;SDS011;27537;57.134;-2.136;2022-12-13T18:59:50;9.95;;;3.38;;
41861;SDS011;27537;57.134;-2.136;2022-12-13T19:02:34;11.00;;;3.50;;
41861;SDS011;27537;57.134;-2.136;2022-12-13T19:05:18;13.43;;;4.03;;
41861;SDS011;27537;57.134;-2.136;2022-12-13T19:08:03;10.80;;;3.10;;
41861;SDS011;27537;57.134;-2.136;2022-12-13T19:11:10;10.88;;;3.67;;
41861;SDS011;27537;57.134;-2.136;2022-12-13T19:14:22;16.38;;;5.18;;
41861;SDS011;27537;57.134;-2.136;2022-12-13T19:17:21;10.65;;;4.22;;
41861;SDS011;27537;57.134;-2.136;2022-12-13T19:20:07;10.88;;;4.10;;
41861;SDS011;27537;57.134;-2.136;2022-12-13T19:22:57;9.32;;;3.28;;
41861;SDS011;27537;57.134;-2.136;2022-12-13T19:25:44;11.27;;;3.47;;
41861;SDS011;27537;57.134;-2.136;2022-12-13T19:28:26;8.35;;;3.60;;
41861;SDS011;27537;57.134;-2.136;2022-12-13T19:31:10;8.98;;;3.17;;
41861;SDS011;27537;57.134;-2.136;2022-12-13T19:33:53;9.45;;;4.20;;
41861;SDS011;27537;57.134;-2.136;2022-12-13T19:36:37;7.50;;;2.70;;
41861;SDS011;27537;57.134;-2.136;2022-12-13T19:39:20;13.30;;;3.50;;